Time;durP1;ratioP1;P1;durP2;ratioP2;P2;SDS_P1;SDS_P2;PMS_P1;PMS_P2;Temp;Humidity;BMP_temperature;BMP_pressure;BME280_temperature;BME280_humidity;BME280_pressure;Samples;Min_cycle;Max_cycle;Signal;HPM_P1;HPM_P2
2023/12/31 00:00:45;;;;;;;1.27;0.63;;;;;18.80;99514.00;;;;2084347;28;20563;-52
2023/12/31 00:01:45;;;;;;;2.73;0.70;;;;;18.80;99523.00;;;;2075743;28;20663;-52
2023/12/31 00:02:46;;;;;;;1.40;0.50;;;;;18.80;99517.00;;;;2084987;28;20218;-53
2023/12/31 00:03:46;;;;;;;1.90;0.53;;;;;18.80;99511.00;;;;2085666;28;20216;-52
2023/12/31 00:04:46;;;;;;;2.13;0.70;;;;;18.80;99509.00;;;;2085532;28;20230;-52
2023/12/31 00:05:47;;;;;;;2.37;0.97;;;;;18.80;99508.00;;;;2088686;28;20277;-49
2023/12/31 00:06:47;;;;;;;1.80;0.67;;;;;18.80;99504.00;;;;2075779;28;20211;-51
2023/12/31 00:07:47;;;;;;;1.90;0.73;;;;;18.80;99499.00;;;;2085369;28;20242;-51
2023/12/31 00:08:47;;;;;;;1.80;0.60;;;;;18.80;99503.00;;;;2084713;28;20290;-52
2023/12/31 00:09:48;;;;;;;1.37;0.60;;;;;18.80;99485.00;;;;2085553;28;20212;-52
2023/12/31 00:10:48;;;;;;;1.43;0.60;;;;;18.80;99495.00;;;;2083321;28;20232;-52
2023/12/31 00:11:49;;;;;;;1.40;0.70;;;;;18.80;99500.00;;;;2075470;28;20212;-52
2023/12/31 00:12:49;;;;;;;1.40;0.70;;;;;18.80;99501.00;;;;2085237;28;25054;-50
2023/12/31 00:13:49;;;;;;;1.37;0.60;;;;;18.80;99496.00;;;;2085100;28;20223;-52
2023/12/31 00:14:50;;;;;;;1.63;0.60;;;;;18.80;99498.00;;;;2087054;28;20231;-52
2023/12/31 00:15:50;;;;;;;2.57;0.90;;;;;18.80;99494.00;;;;2086663;28;20226;-53
2023/12/31 00:16:50;;;;;;;1.77;0.70;;;;;18.80;99496.00;;;;2083434;28;20381;-52
2023/12/31 00:17:51;;;;;;;2.20;0.80;;;;;18.80;99490.00;;;;2086156;28;20407;-53
2023/12/31 00:18:51;;;;;;;1.43;0.60;;;;;18.80;99494.00;;;;2094178;28;20238;-53
2023/12/31 00:19:52;;;;;;;1.60;0.70;;;;;18.80;99491.00;;;;2086800;28;20235;-50
2023/12/31 00:20:52;;;;;;;1.10;0.50;;;;;18.80;99483.00;;;;2084469;28;20232;-51
2023/12/31 00:21:52;;;;;;;1.30;0.50;;;;;17.80;99485.00;;;;2084278;28;20306;-52
2023/12/31 00:22:53;;;;;;;1.60;0.63;;;;;18.80;99474.00;;;;2088354;28;20227;-52
2023/12/31 00:23:53;;;;;;;1.20;0.50;;;;;18.80;99480.00;;;;2094365;28;20233;-52
2023/12/31 00:24:54;;;;;;;1.50;0.60;;;;;18.70;99480.00;;;;2086995;28;20293;-49
2023/12/31 00:25:54;;;;;;;1.55;0.70;;;;;18.80;99486.00;;;;2094410;28;20739;-53
2023/12/31 00:26:55;;;;;;;1.20;0.50;;;;;18.80;99483.00;;;;2077736;28;20223;-52
2023/12/31 00:27:55;;;;;;;1.60;0.50;;;;;18.80;99488.00;;;;2086401;28;20250;-53
2023/12/31 00:28:55;;;;;;;1.30;0.60;;;;;18.80;99476.00;;;;2087031;28;20227;-51
2023/12/31 00:29:56;;;;;;;1.33;0.53;;;;;18.70;99473.00;;;;2081537;28;20216;-49
2023/12/31 00:30:56;;;;;;;1.30;0.53;;;;;18.80;99476.00;;;;2092728;28;20231;-50
2023/12/31 00:31:57;;;;;;;1.20;0.47;;;;;18.80;99473.00;;;;2082026;28;20229;-52
2023/12/31 00:32:58;;;;;;;1.85;0.82;;;;;18.80;99480.00;;;;2094227;28;20747;-52
2023/12/31 00:33:58;;;;;;;1.30;0.60;;;;;18.80;99474.00;;;;2091745;28;20254;-49
2023/12/31 00:34:58;;;;;;;1.70;0.83;;;;;18.80;99477.00;;;;2086370;28;20219;-52
2023/12/31 00:35:59;;;;;;;1.83;0.63;;;;;18.80;99474.00;;;;2087133;28;20219;-52
2023/12/31 00:36:59;;;;;;;1.40;0.60;;;;;18.80;99470.00;;;;2076070;28;20775;-53
2023/12/31 00:37:59;;;;;;;1.40;0.60;;;;;18.80;99471.00;;;;2086805;28;20223;-52
2023/12/31 00:39:00;;;;;;;1.77;0.60;;;;;18.80;99471.00;;;;2083894;28;20229;-52
2023/12/31 00:40:00;;;;;;;1.33;0.60;;;;;18.80;99467.00;;;;2085992;28;20868;-54
2023/12/31 00:41:00;;;;;;;1.33;0.60;;;;;18.80;99452.00;;;;2084473;28;20293;-50
2023/12/31 00:42:01;;;;;;;1.37;0.67;;;;;18.80;99442.00;;;;2076393;28;21101;-51
2023/12/31 00:43:01;;;;;;;1.77;0.87;;;;;18.80;99450.00;;;;2087005;28;20215;-48
2023/12/31 00:44:02;;;;;;;1.30;0.50;;;;;18.80;99440.00;;;;2084442;28;20224;-52
2023/12/31 00:45:02;;;;;;;1.30;0.60;;;;;18.70;99432.00;;;;2094576;28;20277;-52
2023/12/31 00:46:03;;;;;;;1.57;0.63;;;;;18.70;99424.00;;;;2086204;28;20224;-50
2023/12/31 00:47:04;;;;;;;1.20;0.50;;;;;18.70;99316.00;;;;2077397;28;20232;-52
2023/12/31 00:48:05;;;;;;;1.42;0.55;;;;;18.70;99419.00;;;;2094941;28;20249;-53
2023/12/31 00:49:05;;;;;;;1.20;0.50;;;;;18.70;99417.00;;;;2086049;28;20826;-52
2023/12/31 00:50:06;;;;;;;1.57;0.60;;;;;18.70;99425.00;;;;2087076;28;20243;-52
2023/12/31 00:51:06;;;;;;;1.40;0.60;;;;;18.70;99425.00;;;;2084589;28;20215;-53
2023/12/31 00:52:07;;;;;;;1.50;0.50;;;;;18.70;99417.00;;;;2076534;28;20463;-49
2023/12/31 00:53:07;;;;;;;1.30;0.70;;;;;18.70;99415.00;;;;2086535;28;20326;-51
2023/12/31 00:54:07;;;;;;;1.33;0.60;;;;;18.70;99416.00;;;;2093530;28;20207;-52
2023/12/31 00:55:08;;;;;;;1.40;0.60;;;;;18.70;99429.00;;;;2086280;28;20208;-52
2023/12/31 00:56:09;;;;;;;1.63;0.60;;;;;18.70;99420.00;;;;2086689;28;20239;-52
2023/12/31 00:57:09;;;;;;;1.50;0.70;;;;;18.70;99433.00;;;;2083722;28;20250;-52
2023/12/31 00:58:10;;;;;;;1.30;0.60;;;;;18.70;99445.00;;;;2086935;28;20245;-50
2023/12/31 00:59:11;;;;;;;1.23;0.60;;;;;18.70;99437.00;;;;2093557;28;20216;-52
2023/12/31 01:00:12;;;;;;;1.17;0.53;;;;;18.70;99447.00;;;;2085171;28;20266;-53
2023/12/31 01:01:12;;;;;;;1.50;0.70;;;;;18.70;99428.00;;;;2085283;28;20295;-52
2023/12/31 01:02:12;;;;;;;1.77;0.83;;;;;18.70;99432.00;;;;2076637;28;20541;-50
2023/12/31 01:03:13;;;;;;;1.60;0.73;;;;;18.70;99419.00;;;;2085772;28;20209;-49
2023/12/31 01:04:13;;;;;;;1.30;0.60;;;;;18.80;99414.00;;;;2086701;28;20700;-52
2023/12/31 01:05:13;;;;;;;1.40;0.60;;;;;18.80;99411.00;;;;2086311;28;20746;-53
2023/12/31 01:06:14;;;;;;;1.40;0.70;;;;;18.80;99406.00;;;;2085765;28;20622;-49
2023/12/31 01:07:14;;;;;;;1.40;0.60;;;;;18.80;99402.00;;;;2077815;28;20225;-51
2023/12/31 01:08:14;;;;;;;1.43;0.60;;;;;18.80;99398.00;;;;2092169;28;20208;-51
2023/12/31 01:09:15;;;;;;;2.20;0.67;;;;;18.80;99391.00;;;;2084225;28;20231;-53
2023/12/31 01:10:16;;;;;;;1.40;0.70;;;;;18.70;99394.00;;;;2086860;28;20212;-52
2023/12/31 01:11:16;;;;;;;1.40;0.60;;;;;18.70;99383.00;;;;2081189;28;20209;-49
2023/12/31 01:12:16;;;;;;;1.40;0.60;;;;;18.70;99390.00;;;;2076706;28;20220;-51
2023/12/31 01:13:17;;;;;;;1.90;0.70;;;;;18.70;99394.00;;;;2085517;28;20208;-52
2023/12/31 01:14:17;;;;;;;1.60;0.70;;;;;18.70;99388.00;;;;2086395;28;20215;-52
2023/12/31 01:15:17;;;;;;;1.20;0.50;;;;;18.70;99398.00;;;;2087173;28;20220;-52
2023/12/31 01:16:18;;;;;;;3.80;0.70;;;;;18.70;99396.00;;;;2083599;28;20208;-53
2023/12/31 01:17:18;;;;;;;1.20;0.50;;;;;18.70;99397.00;;;;2078974;28;20251;-53
2023/12/31 01:18:19;;;;;;;1.43;0.70;;;;;18.70;99391.00;;;;2089533;28;20204;-49
2023/12/31 01:19:19;;;;;;;1.80;0.77;;;;;18.70;99385.00;;;;2092299;28;20227;-52
2023/12/31 01:20:20;;;;;;;1.10;0.60;;;;;18.70;99392.00;;;;2085622;28;20208;-52
2023/12/31 01:21:20;;;;;;;1.30;0.60;;;;;18.70;99374.00;;;;2087656;28;20265;-53
2023/12/31 01:22:20;;;;;;;1.67;0.50;;;;;18.70;99375.00;;;;2081261;28;20224;-53
2023/12/31 01:23:21;;;;;;;1.20;0.50;;;;;18.70;99364.00;;;;2088343;28;20226;-50
2023/12/31 01:24:21;;;;;;;1.57;0.70;;;;;18.70;99374.00;;;;2091985;28;20243;-52
2023/12/31 01:25:21;;;;;;;1.60;0.57;;;;;18.70;99379.00;;;;2085304;28;20220;-51
2023/12/31 01:26:22;;;;;;;1.50;0.60;;;;;18.70;99369.00;;;;2085493;28;20227;-50
2023/12/31 01:27:22;;;;;;;1.30;0.53;;;;;18.70;99362.00;;;;2075779;28;20212;-52
2023/12/31 01:28:22;;;;;;;1.47;0.60;;;;;18.80;99356.00;;;;2089337;28;20273;-52
2023/12/31 01:29:23;;;;;;;1.27;0.60;;;;;18.80;99356.00;;;;2090930;28;20223;-50
2023/12/31 01:30:24;;;;;;;1.83;0.70;;;;;18.80;99348.00;;;;2088109;28;20216;-51
2023/12/31 01:31:24;;;;;;;1.53;0.60;;;;;18.80;99361.00;;;;2091707;28;20212;-53
2023/12/31 01:32:24;;;;;;;1.30;0.60;;;;;18.80;99365.00;;;;2074962;28;20227;-53
2023/12/31 01:33:25;;;;;;;1.67;0.70;;;;;18.80;99364.00;;;;2089555;28;20296;-52
2023/12/31 01:34:25;;;;;;;1.10;0.50;;;;;18.80;99352.00;;;;2086943;28;20225;-49
2023/12/31 01:35:25;;;;;;;2.00;0.50;;;;;18.80;99351.00;;;;2081374;28;20220;-51
2023/12/31 01:36:26;;;;;;;1.20;0.60;;;;;18.80;99349.00;;;;2082978;28;20242;-51
2023/12/31 01:37:26;;;;;;;1.40;0.60;;;;;18.80;99341.00;;;;2071518;28;21009;-52
2023/12/31 01:38:26;;;;;;;1.20;0.50;;;;;18.70;99354.00;;;;2089691;28;20221;-51
2023/12/31 01:39:27;;;;;;;1.30;0.60;;;;;18.70;99339.00;;;;2090183;28;20228;-52
2023/12/31 01:40:27;;;;;;;1.50;0.70;;;;;18.70;99339.00;;;;2093059;28;20352;-52
2023/12/31 01:41:28;;;;;;;2.07;0.87;;;;;18.70;99351.00;;;;2090438;28;20235;-50
2023/12/31 01:42:28;;;;;;;2.05;0.55;;;;;18.80;99345.00;;;;2079707;28;20233;-53
2023/12/31 01:43:29;;;;;;;1.20;0.50;;;;;18.70;99331.00;;;;2092696;28;20229;-51
2023/12/31 01:44:29;;;;;;;2.33;0.73;;;;;18.70;99330.00;;;;2084025;28;20235;-53
2023/12/31 01:45:29;;;;;;;1.63;0.60;;;;;18.70;99341.00;;;;2086418;28;20224;-49
2023/12/31 01:46:31;;;;;;;1.70;0.60;;;;;18.70;99330.00;;;;2085495;28;20213;-49
2023/12/31 01:47:32;;;;;;;1.50;0.60;;;;;18.70;99304.00;;;;2080397;28;21002;-50
2023/12/31 01:48:33;;;;;;;1.27;0.60;;;;;18.70;99346.00;;;;2089090;28;20227;-51
2023/12/31 01:49:33;;;;;;;1.10;0.40;;;;;18.70;99339.00;;;;2085693;28;20234;-51
2023/12/31 01:50:33;;;;;;;1.40;0.67;;;;;18.70;99343.00;;;;2085685;28;20493;-57
2023/12/31 01:51:34;;;;;;;1.50;0.50;;;;;18.70;99325.00;;;;2079851;28;20216;-55
2023/12/31 01:52:34;;;;;;;1.83;0.70;;;;;18.80;99335.00;;;;2074866;28;20287;-52
2023/12/31 01:53:35;;;;;;;1.10;0.50;;;;;18.80;99326.00;;;;2076524;28;20216;-51
2023/12/31 01:54:35;;;;;;;1.20;0.60;;;;;18.70;99330.00;;;;2089796;28;20218;-52
2023/12/31 01:55:35;;;;;;;1.40;0.70;;;;;18.70;99326.00;;;;2088444;28;20220;-49
2023/12/31 01:56:37;;;;;;;1.70;0.70;;;;;18.70;99318.00;;;;2077055;28;20256;-52
2023/12/31 01:57:37;;;;;;;1.08;0.50;;;;;18.70;99326.00;;;;2073854;28;20223;-51
2023/12/31 01:58:38;;;;;;;1.20;0.60;;;;;18.70;99323.00;;;;2078545;28;20242;-52
2023/12/31 01:59:38;;;;;;;1.47;0.50;;;;;18.70;99360.00;;;;2081653;28;20828;-52
2023/12/31 02:00:38;;;;;;;1.50;0.70;;;;;18.70;99323.00;;;;2083141;28;20633;-50
2023/12/31 02:01:40;;;;;;;1.20;0.60;;;;;18.70;99331.00;;;;2075483;28;20266;-53
2023/12/31 02:02:42;;;;;;;1.50;0.70;;;;;18.70;99322.00;;;;2088907;28;20220;-50
2023/12/31 02:03:43;;;;;;;1.55;0.70;;;;;18.70;99316.00;;;;2075241;28;20210;-52
2023/12/31 02:04:43;;;;;;;1.47;0.63;;;;;18.70;99320.00;;;;2085614;28;20623;-51
2023/12/31 02:05:44;;;;;;;1.53;0.60;;;;;18.70;99318.00;;;;2085359;28;20219;-53
2023/12/31 02:06:44;;;;;;;1.20;0.60;;;;;18.70;99324.00;;;;2073712;28;20216;-53
2023/12/31 02:07:45;;;;;;;1.30;0.60;;;;;18.70;99326.00;;;;2084282;28;20219;-50
2023/12/31 02:08:45;;;;;;;2.40;0.60;;;;;18.70;99316.00;;;;2079935;28;20223;-49
2023/12/31 02:09:45;;;;;;;1.30;0.60;;;;;18.70;99318.00;;;;2085090;28;20220;-51
2023/12/31 02:10:46;;;;;;;1.47;0.60;;;;;18.70;99315.00;;;;2083438;28;20238;-52
2023/12/31 02:11:46;;;;;;;1.20;0.50;;;;;18.70;99316.00;;;;2073880;28;20576;-52
2023/12/31 02:12:46;;;;;;;1.50;0.60;;;;;18.70;99320.00;;;;2083569;28;20621;-52
2023/12/31 02:13:47;;;;;;;1.30;0.60;;;;;18.70;99308.00;;;;2085421;28;20701;-52
2023/12/31 02:14:47;;;;;;;1.43;0.60;;;;;18.70;99362.00;;;;2086057;28;20719;-53
2023/12/31 02:15:47;;;;;;;1.27;0.60;;;;;18.70;99309.00;;;;2081713;28;21076;-50
2023/12/31 02:16:48;;;;;;;1.50;0.63;;;;;18.70;99298.00;;;;2074155;28;20208;-52
2023/12/31 02:17:48;;;;;;;1.27;0.57;;;;;18.70;99295.00;;;;2084730;28;20208;-53
2023/12/31 02:18:48;;;;;;;1.20;0.60;;;;;18.70;99289.00;;;;2083545;28;20243;-52
2023/12/31 02:19:49;;;;;;;1.40;0.67;;;;;18.70;99304.00;;;;2086140;28;20238;-52
2023/12/31 02:20:49;;;;;;;1.20;0.60;;;;;18.70;99295.00;;;;2083090;28;20587;-52
2023/12/31 02:21:49;;;;;;;2.13;0.67;;;;;18.70;99319.00;;;;2082198;28;20945;-52
2023/12/31 02:22:50;;;;;;;1.50;0.60;;;;;18.70;99294.00;;;;2086953;28;20787;-50
2023/12/31 02:23:50;;;;;;;1.30;0.63;;;;;18.70;99293.00;;;;2085589;28;20637;-52
2023/12/31 02:24:51;;;;;;;1.50;0.80;;;;;18.70;99283.00;;;;2082704;28;21139;-52
2023/12/31 02:26:04;;;;;;;1.70;0.80;;;;;18.70;99283.00;;;;2085001;28;20633;-49
2023/12/31 02:27:04;;;;;;;1.52;0.60;;;;;18.70;99282.00;;;;2070914;28;20684;-52
2023/12/31 02:28:08;;;;;;;1.40;0.70;;;;;18.70;99274.00;;;;2085497;28;20299;-51
2023/12/31 02:29:08;;;;;;;2.75;0.80;;;;;18.70;99276.00;;;;2077579;28;20619;-50
2023/12/31 02:30:09;;;;;;;1.27;0.63;;;;;18.70;99279.00;;;;2085030;28;20278;-52
2023/12/31 02:31:09;;;;;;;1.63;0.90;;;;;18.70;99275.00;;;;2084765;28;20239;-51
2023/12/31 02:32:09;;;;;;;1.23;0.57;;;;;18.70;99266.00;;;;2074205;28;20229;-52
2023/12/31 02:33:10;;;;;;;1.37;0.60;;;;;18.60;99265.00;;;;2084671;28;20228;-55
2023/12/31 02:34:11;;;;;;;1.50;0.70;;;;;18.70;99254.00;;;;2084461;28;20686;-55
2023/12/31 02:35:11;;;;;;;1.50;0.70;;;;;18.70;99263.00;;;;2084630;28;20212;-53
2023/12/31 02:36:11;;;;;;;1.43;0.50;;;;;18.30;99262.00;;;;2085813;28;20217;-52
2023/12/31 02:37:12;;;;;;;3.27;0.63;;;;;18.70;99263.00;;;;2071356;28;20302;-49
2023/12/31 02:38:12;;;;;;;1.50;0.60;;;;;18.70;99258.00;;;;2086073;28;20258;-52
2023/12/31 02:39:12;;;;;;;1.40;0.70;;;;;18.70;99258.00;;;;2084970;28;20213;-49
2023/12/31 02:40:13;;;;;;;1.30;0.53;;;;;18.70;99254.00;;;;2086185;28;20223;-50
2023/12/31 02:41:13;;;;;;;1.50;0.80;;;;;18.70;99265.00;;;;2084165;28;20244;-52
2023/12/31 02:42:13;;;;;;;1.87;0.63;;;;;18.70;99246.00;;;;2075202;28;20703;-52
2023/12/31 02:43:14;;;;;;;1.47;0.50;;;;;18.70;99247.00;;;;2086663;28;20696;-51
2023/12/31 02:44:14;;;;;;;1.60;0.67;;;;;18.70;99244.00;;;;2086757;28;20601;-52
2023/12/31 02:45:14;;;;;;;1.53;0.70;;;;;18.70;99246.00;;;;2085897;28;20235;-52
2023/12/31 02:46:15;;;;;;;1.90;0.70;;;;;18.70;99241.00;;;;2085105;28;20232;-49
2023/12/31 02:47:16;;;;;;;1.40;0.60;;;;;18.80;99244.00;;;;2076019;28;20223;-52
2023/12/31 02:48:16;;;;;;;1.43;0.67;;;;;18.70;99231.00;;;;2085728;28;20235;-49
2023/12/31 02:49:16;;;;;;;2.90;0.80;;;;;18.70;99228.00;;;;2085133;28;20250;-53
2023/12/31 02:50:17;;;;;;;1.70;0.70;;;;;18.20;99233.00;;;;2086027;28;20208;-52
2023/12/31 02:51:17;;;;;;;1.30;0.60;;;;;18.70;99229.00;;;;2083276;28;20212;-49
2023/12/31 02:52:17;;;;;;;1.30;0.70;;;;;18.70;99222.00;;;;2074976;28;20261;-51
2023/12/31 02:53:18;;;;;;;1.70;0.80;;;;;18.70;99220.00;;;;2087312;28;21288;-52
2023/12/31 02:54:18;;;;;;;2.03;0.70;;;;;18.70;99226.00;;;;2087223;28;20219;-52
2023/12/31 02:55:19;;;;;;;1.20;0.50;;;;;18.70;99216.00;;;;2092899;28;20891;-52
2023/12/31 02:56:19;;;;;;;1.50;0.80;;;;;18.70;99212.00;;;;2086571;28;20257;-52
2023/12/31 02:57:19;;;;;;;1.40;0.63;;;;;18.70;99218.00;;;;2082309;28;20218;-50
2023/12/31 02:58:20;;;;;;;1.87;0.60;;;;;18.70;99212.00;;;;2084759;28;20219;-52
2023/12/31 02:59:20;;;;;;;1.40;0.70;;;;;18.70;99218.00;;;;2085584;28;20219;-52
2023/12/31 03:00:20;;;;;;;1.30;0.60;;;;;18.60;99199.00;;;;2085318;28;20282;-52
2023/12/31 03:01:21;;;;;;;1.50;0.83;;;;;18.60;99211.00;;;;2084569;28;20223;-52
2023/12/31 03:02:21;;;;;;;1.73;0.80;;;;;18.60;99203.00;;;;2076036;28;20224;-52
2023/12/31 03:03:21;;;;;;;1.43;0.70;;;;;18.70;99242.00;;;;2084146;28;20243;-52
2023/12/31 03:04:22;;;;;;;1.93;0.70;;;;;18.60;99220.00;;;;2092445;28;20973;-50
2023/12/31 03:05:22;;;;;;;1.60;0.73;;;;;18.60;99195.00;;;;2087631;28;20224;-51
2023/12/31 03:06:22;;;;;;;1.63;0.77;;;;;18.70;99197.00;;;;2087052;28;20212;-52
2023/12/31 03:07:23;;;;;;;1.30;0.70;;;;;18.70;99196.00;;;;2075352;28;20271;-52
2023/12/31 03:08:23;;;;;;;1.20;0.60;;;;;18.70;99186.00;;;;2084951;28;21022;-52
2023/12/31 03:09:23;;;;;;;1.53;0.73;;;;;18.70;99194.00;;;;2084835;28;20714;-52
2023/12/31 03:10:24;;;;;;;1.50;0.80;;;;;18.70;99189.00;;;;2086268;28;20971;-53
2023/12/31 03:11:25;;;;;;;1.57;0.80;;;;;18.70;99191.00;;;;2082479;28;20209;-50
2023/12/31 03:12:26;;;;;;;1.40;0.60;;;;;18.70;99185.00;;;;2072614;28;20242;-52
2023/12/31 03:13:26;;;;;;;2.00;0.73;;;;;18.70;99190.00;;;;2075305;28;20763;-49
2023/12/31 03:14:26;;;;;;;1.37;0.77;;;;;18.70;99177.00;;;;2085459;28;20220;-51
2023/12/31 03:15:27;;;;;;;1.50;0.70;;;;;18.70;99189.00;;;;2085169;28;20283;-52
2023/12/31 03:16:27;;;;;;;2.37;0.70;;;;;18.70;99178.00;;;;2087947;28;20222;-52
2023/12/31 03:17:27;;;;;;;1.20;0.50;;;;;18.70;99176.00;;;;2081359;28;20226;-52
2023/12/31 03:18:28;;;;;;;1.00;0.40;;;;;18.70;99177.00;;;;2087108;28;20830;-53
2023/12/31 03:19:28;;;;;;;1.50;0.60;;;;;18.60;98918.00;;;;2091392;28;20254;-53
2023/12/31 03:20:28;;;;;;;1.27;0.60;;;;;18.60;99174.00;;;;2082253;28;20209;-50
2023/12/31 03:21:29;;;;;;;1.53;0.73;;;;;18.60;99164.00;;;;2085041;28;20247;-52
2023/12/31 03:22:29;;;;;;;2.03;0.70;;;;;18.60;99169.00;;;;2074520;28;20236;-52
2023/12/31 03:23:29;;;;;;;2.07;0.80;;;;;18.60;99170.00;;;;2087655;28;20234;-51
2023/12/31 03:24:30;;;;;;;1.30;0.63;;;;;18.60;99166.00;;;;2088446;28;20211;-51
2023/12/31 03:25:31;;;;;;;1.37;0.70;;;;;18.60;99190.00;;;;2084688;28;20228;-54
2023/12/31 03:26:31;;;;;;;1.53;0.80;;;;;18.60;99164.00;;;;2085728;28;20974;-53
2023/12/31 03:27:31;;;;;;;1.60;0.80;;;;;18.60;99160.00;;;;2074282;28;20884;-52
2023/12/31 03:28:32;;;;;;;1.50;0.77;;;;;18.60;99150.00;;;;2085648;28;20224;-55
2023/12/31 03:29:32;;;;;;;2.20;0.60;;;;;18.60;99160.00;;;;2084645;28;20208;-52
2023/12/31 03:30:32;;;;;;;1.70;0.70;;;;;18.70;99155.00;;;;2084396;28;20231;-52
2023/12/31 03:31:33;;;;;;;1.40;0.70;;;;;18.70;99165.00;;;;2085779;28;20559;-51
2023/12/31 03:32:33;;;;;;;1.70;1.00;;;;;18.70;99167.00;;;;2073636;28;20207;-55
2023/12/31 03:33:33;;;;;;;1.40;0.87;;;;;18.70;99166.00;;;;2088186;28;20751;-54
2023/12/31 03:34:34;;;;;;;1.30;0.50;;;;;18.60;99158.00;;;;2088200;28;20605;-52
2023/12/31 03:35:34;;;;;;;1.30;0.70;;;;;18.60;99162.00;;;;2085612;28;20586;-51
2023/12/31 03:36:34;;;;;;;1.17;0.60;;;;;18.60;99148.00;;;;2084138;28;20843;-51
2023/12/31 03:37:35;;;;;;;2.07;1.00;;;;;18.60;99162.00;;;;2075044;28;20727;-51
2023/12/31 03:38:35;;;;;;;1.60;0.53;;;;;18.60;99155.00;;;;2083433;28;20255;-53
2023/12/31 03:39:36;;;;;;;1.70;0.93;;;;;18.60;99151.00;;;;2083855;28;20227;-52
2023/12/31 03:40:36;;;;;;;1.40;0.60;;;;;18.60;99149.00;;;;2084254;28;20242;-52
2023/12/31 03:41:36;;;;;;;1.20;0.60;;;;;18.60;99140.00;;;;2083864;28;20626;-51
2023/12/31 03:42:37;;;;;;;2.07;0.80;;;;;18.60;99145.00;;;;2074339;28;20284;-51
2023/12/31 03:43:37;;;;;;;1.50;0.80;;;;;18.60;99147.00;;;;2081927;28;20216;-54
2023/12/31 03:44:37;;;;;;;2.10;0.67;;;;;18.60;99143.00;;;;2080636;28;20228;-53
2023/12/31 03:45:38;;;;;;;1.57;0.70;;;;;18.60;99139.00;;;;2085454;28;20360;-54
2023/12/31 03:46:38;;;;;;;1.40;0.70;;;;;18.70;99139.00;;;;2074123;28;20231;-52
2023/12/31 03:47:39;;;;;;;1.43;0.77;;;;;18.70;99131.00;;;;2082738;28;20220;-51
2023/12/31 03:48:39;;;;;;;1.20;0.60;;;;;18.70;99131.00;;;;2081545;28;20221;-51
2023/12/31 03:49:39;;;;;;;1.93;1.00;;;;;18.60;99127.00;;;;2080846;28;20272;-51
2023/12/31 03:50:39;;;;;;;1.20;0.70;;;;;18.60;99134.00;;;;2083409;28;20250;-50
2023/12/31 03:51:40;;;;;;;1.20;0.70;;;;;18.50;99130.00;;;;2071327;28;20220;-53
2023/12/31 03:52:40;;;;;;;1.30;0.70;;;;;18.60;99132.00;;;;2088293;28;20222;-53
2023/12/31 03:53:41;;;;;;;1.80;0.77;;;;;18.60;99130.00;;;;2081243;28;20292;-52
2023/12/31 03:54:41;;;;;;;1.33;0.70;;;;;18.60;99114.00;;;;2085303;28;20219;-52
2023/12/31 03:55:42;;;;;;;1.40;0.60;;;;;18.70;99120.00;;;;2084272;28;20216;-53
2023/12/31 03:56:42;;;;;;;1.23;0.70;;;;;18.70;99126.00;;;;2075597;28;20240;-52
2023/12/31 03:57:42;;;;;;;1.40;0.60;;;;;18.60;99113.00;;;;2085120;28;20220;-54
2023/12/31 03:58:43;;;;;;;1.37;0.70;;;;;18.60;99108.00;;;;2084044;28;20220;-52
2023/12/31 03:59:43;;;;;;;1.60;0.80;;;;;18.70;99114.00;;;;2085211;28;20224;-51
2023/12/31 04:00:43;;;;;;;1.40;0.70;;;;;18.70;99104.00;;;;2081802;28;20223;-51
2023/12/31 04:01:47;;;;;;;1.50;0.70;;;;;18.70;99110.00;;;;2077724;28;20227;-51
2023/12/31 04:02:48;;;;;;;1.20;0.60;;;;;18.70;99104.00;;;;2089451;28;20258;-51
2023/12/31 04:03:48;;;;;;;1.10;0.60;;;;;18.60;99093.00;;;;2085244;28;20870;-52
2023/12/31 04:04:49;;;;;;;1.50;0.70;;;;;18.60;99099.00;;;;2085288;28;20677;-54
2023/12/31 04:05:49;;;;;;;1.63;0.80;;;;;18.60;99090.00;;;;2085012;28;20209;-52
2023/12/31 04:06:49;;;;;;;1.50;0.90;;;;;18.70;99081.00;;;;2074733;28;20214;-51
2023/12/31 04:07:50;;;;;;;1.60;0.70;;;;;18.70;99085.00;;;;2085466;28;20235;-52
2023/12/31 04:08:50;;;;;;;1.40;0.67;;;;;18.70;99089.00;;;;2084339;28;20212;-51
2023/12/31 04:09:51;;;;;;;1.60;0.77;;;;;18.70;99073.00;;;;2085511;28;20215;-51
2023/12/31 04:10:51;;;;;;;1.30;0.63;;;;;18.70;99073.00;;;;2083411;28;20240;-55
2023/12/31 04:11:52;;;;;;;1.27;0.63;;;;;18.60;99069.00;;;;2074407;28;20226;-53
2023/12/31 04:12:52;;;;;;;1.40;0.70;;;;;18.60;99080.00;;;;2084610;28;20211;-51
2023/12/31 04:13:52;;;;;;;5.20;0.70;;;;;18.60;99075.00;;;;2085013;28;20230;-52
2023/12/31 04:14:53;;;;;;;1.50;0.80;;;;;18.60;99073.00;;;;2081686;28;20294;-51
2023/12/31 04:15:53;;;;;;;1.40;0.70;;;;;18.60;99074.00;;;;2084437;28;20749;-55
2023/12/31 04:16:54;;;;;;;1.73;0.70;;;;;18.60;99066.00;;;;2075589;28;20576;-53
2023/12/31 04:17:54;;;;;;;2.00;0.77;;;;;18.60;99068.00;;;;2084577;28;21201;-51
2023/12/31 04:18:54;;;;;;;1.53;0.77;;;;;18.60;99058.00;;;;2086777;28;20215;-50
2023/12/31 04:19:55;;;;;;;1.83;0.77;;;;;18.60;99053.00;;;;2087518;28;20223;-51
2023/12/31 04:20:55;;;;;;;1.43;0.90;;;;;18.60;99050.00;;;;2083998;28;20411;-50
2023/12/31 04:21:56;;;;;;;1.40;0.70;;;;;18.60;99036.00;;;;2073893;28;20346;-53
2023/12/31 04:22:56;;;;;;;1.70;0.80;;;;;18.60;99038.00;;;;2084769;28;20212;-51
2023/12/31 04:23:56;;;;;;;1.50;0.80;;;;;18.60;99041.00;;;;2085080;28;20244;-51
2023/12/31 04:24:57;;;;;;;1.53;0.63;;;;;18.60;99034.00;;;;2084377;28;20204;-49
2023/12/31 04:25:57;;;;;;;1.50;0.80;;;;;18.60;99037.00;;;;2083076;28;20215;-50
2023/12/31 04:26:57;;;;;;;1.47;0.70;;;;;18.70;99024.00;;;;2074804;28;20296;-52
2023/12/31 04:27:59;;;;;;;1.50;0.77;;;;;18.70;98729.00;;;;2090920;28;20206;-50
2023/12/31 04:29:00;;;;;;;2.78;0.90;;;;;18.60;99018.00;;;;2087779;28;20320;-50
2023/12/31 04:30:00;;;;;;;1.63;0.80;;;;;18.60;99023.00;;;;2084011;28;20226;-54
2023/12/31 04:31:03;;;;;;;1.23;0.60;;;;;18.60;99010.00;;;;2083941;28;20259;-52
2023/12/31 04:32:04;;;;;;;1.30;0.70;;;;;18.60;99018.00;;;;2077063;28;20272;-53
2023/12/31 04:33:04;;;;;;;1.40;0.70;;;;;18.60;99021.00;;;;2092693;28;20211;-54
2023/12/31 04:34:04;;;;;;;1.57;0.70;;;;;18.60;99017.00;;;;2086102;28;20317;-54
2023/12/31 04:35:05;;;;;;;1.60;0.90;;;;;18.60;99018.00;;;;2074600;28;20217;-53
2023/12/31 04:36:06;;;;;;;1.43;0.70;;;;;18.60;99007.00;;;;2069845;28;20229;-51
2023/12/31 04:37:07;;;;;;;1.23;0.80;;;;;18.60;99012.00;;;;2073886;28;20535;-53
2023/12/31 04:38:07;;;;;;;1.80;0.90;;;;;18.60;99011.00;;;;2085439;28;20290;-51
2023/12/31 04:39:08;;;;;;;1.80;0.70;;;;;18.60;98988.00;;;;2083798;28;20730;-53
2023/12/31 04:40:08;;;;;;;1.60;0.90;;;;;18.60;99003.00;;;;2085342;28;20212;-50
2023/12/31 04:41:18;;;;;;;1.57;0.70;;;;;18.60;99049.00;;;;2082627;28;20255;-54
2023/12/31 04:42:19;;;;;;;1.70;0.98;;;;;18.60;98996.00;;;;2067580;28;20221;-54
2023/12/31 04:43:19;;;;;;;1.47;0.70;;;;;18.60;98992.00;;;;2092760;28;20641;-53
2023/12/31 04:44:19;;;;;;;1.70;0.77;;;;;18.60;98987.00;;;;2084535;28;20423;-50
2023/12/31 04:45:20;;;;;;;1.70;0.90;;;;;18.60;98990.00;;;;2093275;28;21007;-50
2023/12/31 04:46:20;;;;;;;1.27;0.63;;;;;18.60;98983.00;;;;2083708;28;21067;-51
2023/12/31 04:47:20;;;;;;;1.60;0.90;;;;;18.60;98976.00;;;;2075437;28;20605;-50
2023/12/31 04:48:21;;;;;;;1.80;1.00;;;;;18.60;98984.00;;;;2083719;28;20227;-51
2023/12/31 04:49:21;;;;;;;1.50;0.80;;;;;18.60;98977.00;;;;2085251;28;20258;-54
2023/12/31 04:50:21;;;;;;;1.73;0.93;;;;;18.60;98978.00;;;;2084905;28;20248;-53
2023/12/31 04:51:25;;;;;;;1.23;0.70;;;;;18.60;98968.00;;;;2083819;28;20217;-53
2023/12/31 04:52:26;;;;;;;1.50;0.80;;;;;18.60;98978.00;;;;2075929;28;20216;-52
2023/12/31 04:53:26;;;;;;;1.57;0.77;;;;;18.60;98972.00;;;;2085641;28;20567;-51
2023/12/31 04:54:27;;;;;;;1.40;0.80;;;;;18.60;98971.00;;;;2085175;28;20343;-50
2023/12/31 04:55:27;;;;;;;1.53;0.60;;;;;18.60;98954.00;;;;2083583;28;20459;-51
2023/12/31 04:56:27;;;;;;;1.70;0.83;;;;;18.60;98966.00;;;;2082054;28;20338;-53
2023/12/31 04:57:28;;;;;;;2.17;0.87;;;;;18.60;98959.00;;;;2075027;28;20248;-51
2023/12/31 04:58:28;;;;;;;1.47;0.73;;;;;18.60;98945.00;;;;2086581;28;20211;-50
2023/12/31 04:59:28;;;;;;;1.70;0.73;;;;;18.50;98959.00;;;;2086621;28;20285;-50
2023/12/31 05:00:29;;;;;;;2.87;0.90;;;;;18.50;98959.00;;;;2084311;28;20210;-50
2023/12/31 05:01:32;;;;;;;1.63;0.77;;;;;18.60;98964.00;;;;2086862;28;20216;-51
2023/12/31 05:02:33;;;;;;;1.55;0.90;;;;;18.60;98953.00;;;;2075675;28;20648;-53
2023/12/31 05:03:33;;;;;;;1.30;0.70;;;;;18.60;98948.00;;;;2086560;28;20299;-51